^^
Station Historical Data
Daily Summary for June 23, 2017 Units:  English    Metric   Both
« Previous Day
Next Day »
Daily Weekly Monthly Yearly Custom
  High: Low: Average:
Temperature: 83.0 °F 74.1 °F 78.3 °F
Dew Point: 74.2 °F 67.9 °F 72.2 °F
Humidity: 94% 71% 82%
Wind Speed: 7.0mph 0.0mph 2.6mph
Wind Gust: 18.0mph - -
Wind- - SSW
Pressure: 29.90 in 29.62 in -
Precipitation: 0.07 in    
Historical Graphs
 
 
Tabular Data for June 23, 2017
Time Temperature Dew Point Pressure Wind Wind Speed Wind Gust Humidity Rainfall Rate (Hourly) Conditions
00:00 74.1 °F 67.9 °F 29.90 in Calm   5.0 mph 81% 0.00 in CLR
00:15 74.5 °F 68.2 °F 29.90 in SSW 1.0 mph 3.0 mph 81% 0.00 in CLR
00:30 75.9 °F 68.9 °F 29.90 in SSW 1.0 mph 5.0 mph 79% 0.00 in CLR
00:45 76.6 °F 69.6 °F 29.89 in South 1.0 mph 4.0 mph 79% 0.00 in CLR
01:00 76.9 °F 69.5 °F 29.89 in South 1.0 mph 6.0 mph 78% 0.00 in CLR
02:15 77.4 °F 70.4 °F 29.86 in SSW 1.0 mph 6.0 mph 79% 0.00 in CLR
02:30 77.2 °F 70.6 °F 29.85 in Calm   3.0 mph 80% 0.00 in CLR
02:45 77.0 °F 70.4 °F 29.84 in SSW 1.0 mph 4.0 mph 80% 0.00 in CLR
03:00 77.1 °F 70.5 °F 29.84 in SSW 2.0 mph 5.0 mph 80% 0.00 in CLR
03:15 77.2 °F 70.5 °F 29.83 in SSW 1.0 mph 6.0 mph 80% 0.00 in CLR
03:30 76.9 °F 70.3 °F 29.83 in SSW 1.0 mph 5.0 mph 80% 0.00 in CLR
03:45 76.8 °F 70.5 °F 29.83 in Calm   3.0 mph 81% 0.00 in CLR
04:00 76.6 °F 70.3 °F 29.83 in South 2.0 mph 5.0 mph 81% 0.00 in CLR
04:15 76.4 °F 70.1 °F 29.83 in Calm   3.0 mph 81% 0.00 in CLR
04:30 76.2 °F 70.3 °F 29.83 in Calm   1.0 mph 82% 0.00 in CLR
04:45 75.9 °F 70.4 °F 29.82 in SSW 1.0 mph 5.0 mph 83% 0.00 in CLR
05:00 75.8 °F 70.3 °F 29.83 in SSW 1.0 mph 5.0 mph 83% 0.00 in CLR
05:15 75.8 °F 70.6 °F 29.83 in SSW 2.0 mph 7.0 mph 84% 0.00 in FEW
05:30 76.0 °F 70.5 °F 29.83 in SSW 2.0 mph 10.0 mph 83% 0.00 in FEW
05:45 76.1 °F 70.6 °F 29.83 in SW 3.0 mph 7.0 mph 83% 0.00 in FEW
06:00 76.0 °F 70.8 °F 29.82 in SSW 2.0 mph 8.0 mph 84% 0.00 in FEW
06:15 75.8 °F 70.6 °F 29.83 in SW 3.0 mph 7.0 mph 84% 0.00 in FEW
06:30 75.7 °F 70.9 °F 29.83 in South 3.0 mph 7.0 mph 85% 0.00 in FEW
06:45 75.7 °F 70.9 °F 29.83 in South 3.0 mph 6.0 mph 85% 0.00 in FEW
07:00 75.8 °F 71.0 °F 29.83 in SSW 2.0 mph 6.0 mph 85% 0.00 in FEW
07:15 76.0 °F 71.2 °F 29.83 in SSW 2.0 mph 5.0 mph 85% 0.00 in SCT
07:30 76.9 °F 71.7 °F 29.82 in SW 1.0 mph 6.0 mph 84% 0.00 in SCT
07:45 78.2 °F 71.9 °F 29.82 in SSW 2.0 mph 6.0 mph 81% 0.00 in SCT
08:00 78.8 °F 72.1 °F 29.82 in SSW 2.0 mph 7.0 mph 80% 0.00 in SCT
08:15 78.7 °F 71.6 °F 29.82 in SSW 5.0 mph 7.0 mph 79% 0.00 in FEW
08:30 78.7 °F 72.0 °F 29.81 in SW 2.0 mph 7.0 mph 80% 0.00 in FEW
08:45 79.7 °F 72.6 °F 29.81 in SSW 2.0 mph 7.0 mph 79% 0.00 in FEW
09:00 79.7 °F 72.2 °F 29.80 in South 2.0 mph 7.0 mph 78% 0.00 in FEW
09:15 79.4 °F 72.3 °F 29.80 in South 2.0 mph 7.0 mph 79% 0.00 in CLR
09:30 79.2 °F 72.1 °F 29.79 in SSW 3.0 mph 9.0 mph 79% 0.00 in CLR
09:45 79.7 °F 72.9 °F 29.78 in Calm   6.0 mph 80% 0.00 in CLR
10:00 80.2 °F 73.1 °F 29.78 in SSW 1.0 mph 6.0 mph 79% 0.00 in CLR
10:15 80.6 °F 73.5 °F 29.77 in SW 1.0 mph 7.0 mph 79% 0.00 in CLR
10:30 81.5 °F 73.6 °F 29.77 in South 3.0 mph 9.0 mph 77% 0.00 in CLR
10:45 81.4 °F 73.1 °F 29.77 in SSW 2.0 mph 10.0 mph 76% 0.00 in CLR
11:00 81.5 °F 72.8 °F 29.77 in SSW 5.0 mph 12.0 mph 75% 0.00 in CLR
11:15 81.1 °F 73.6 °F 29.76 in South 5.0 mph 12.0 mph 78% 0.00 in CLR
11:30 81.6 °F 74.1 °F 29.76 in SSW 5.0 mph 10.0 mph 78% 0.00 in CLR
11:45 81.7 °F 74.2 °F 29.75 in SSW 6.0 mph 12.0 mph 78% 0.00 in CLR
12:00 81.3 °F 74.2 °F 29.75 in SW 3.0 mph 10.0 mph 79% 0.00 in CLR
12:30 82.1 °F 73.0 °F 29.73 in SSW 6.0 mph 18.0 mph 74% 0.00 in FEW
12:45 83.0 °F 72.6 °F 29.72 in South 7.0 mph 13.0 mph 71% 0.00 in FEW
13:00 82.4 °F 72.5 °F 29.72 in SW 5.0 mph 15.0 mph 72% 0.00 in FEW
13:15 81.9 °F 71.9 °F 29.71 in SSW 6.0 mph 16.0 mph 72% 0.00 in SCT
13:30 81.6 °F 72.1 °F 29.70 in SSW 3.0 mph 14.0 mph 73% 0.00 in SCT
13:45 80.5 °F 71.5 °F 29.70 in SW 6.0 mph 15.0 mph 74% 0.00 in SCT
14:00 77.4 °F 71.4 °F 29.71 in SSW 7.0 mph 16.0 mph 82% 0.00 in SCT
14:15 75.6 °F 71.8 °F 29.70 in SW 2.0 mph 9.0 mph 88% 0.00 in SCT
14:30 74.8 °F 71.7 °F 29.70 in SSW 2.0 mph 6.0 mph 90% 0.02 in RA
14:45 75.1 °F 72.2 °F 29.69 in SSW 3.0 mph 9.0 mph 91% 0.00 in SCT
15:00 75.7 °F 72.2 °F 29.68 in SSW 3.0 mph 13.0 mph 89% 0.00 in SCT
15:15 77.3 °F 72.8 °F 29.68 in SW 5.0 mph 10.0 mph 86% 0.00 in -RA
15:30 77.0 °F 72.1 °F 29.68 in SW 5.0 mph 12.0 mph 85% 0.00 in -RA
15:45 77.6 °F 72.4 °F 29.67 in South 3.0 mph 14.0 mph 84% 0.00 in -RA
16:00 78.5 °F 72.2 °F 29.67 in SW 6.0 mph 12.0 mph 81% 0.00 in -RA
16:15 78.7 °F 72.3 °F 29.67 in SSW 3.0 mph 9.0 mph 81% 0.00 in BKN
16:30 80.3 °F 72.8 °F 29.67 in SSW 5.0 mph 13.0 mph 78% 0.00 in BKN
16:45 79.8 °F 72.3 °F 29.66 in SSW 2.0 mph 12.0 mph 78% 0.00 in BKN
17:00 80.1 °F 72.6 °F 29.66 in SW 3.0 mph 8.0 mph 78% 0.00 in BKN
17:15 81.0 °F 73.5 °F 29.66 in SW 2.0 mph 9.0 mph 78% 0.00 in BKN
18:00 82.2 °F 73.9 °F 29.64 in South 2.0 mph 12.0 mph 76% 0.00 in BKN
18:15 82.0 °F 73.3 °F 29.64 in SSW 5.0 mph 10.0 mph 75% 0.00 in BKN
18:30 81.7 °F 73.4 °F 29.64 in SSW 2.0 mph 8.0 mph 76% 0.00 in BKN
18:45 81.9 °F 73.6 °F 29.63 in Calm   6.0 mph 76% 0.00 in BKN
19:00 83.0 °F 73.9 °F 29.64 in SSW 1.0 mph 4.0 mph 74% 0.00 in BKN
19:15 82.0 °F 74.0 °F 29.63 in SSW 1.0 mph 8.0 mph 77% 0.00 in SCT
19:30 80.5 °F 74.1 °F 29.63 in Calm   9.0 mph 81% 0.00 in SCT
19:45 79.5 °F 73.9 °F 29.64 in South 2.0 mph 5.0 mph 83% 0.01 in SCT
20:00 79.0 °F 74.1 °F 29.63 in Calm   5.0 mph 85% 0.00 in SCT
20:15 78.7 °F 73.8 °F 29.63 in Calm   4.0 mph 85% 0.00 in SCT
20:30 78.4 °F 73.9 °F 29.63 in SW 1.0 mph 3.0 mph 86% 0.00 in SCT
20:45 78.2 °F 74.0 °F 29.63 in Calm   7.0 mph 87% 0.00 in SCT
21:00 77.9 °F 73.7 °F 29.62 in South 1.0 mph 5.0 mph 87% 0.00 in SCT
21:15 77.5 °F 73.6 °F 29.63 in South 2.0 mph 5.0 mph 88% 0.00 in -RA
21:30 77.1 °F 73.3 °F 29.63 in South 1.0 mph 7.0 mph 88% 0.00 in -RA
21:45 77.2 °F 73.7 °F 29.64 in SSW 2.0 mph 6.0 mph 89% 0.00 in -RA
22:00 77.0 °F 73.8 °F 29.64 in SSW 5.0 mph 9.0 mph 90% 0.01 in -RA
22:15 76.6 °F 73.8 °F 29.64 in South 5.0 mph 11.0 mph 91% 0.01 in RA
22:30 76.2 °F 73.7 °F 29.64 in SSW 3.0 mph 13.0 mph 92% 0.00 in SCT
22:45 76.0 °F 73.8 °F 29.63 in SSW 5.0 mph 13.0 mph 93% 0.01 in RA
23:00 75.6 °F 73.5 °F 29.62 in SSW 6.0 mph 12.0 mph 93% 0.01 in SCT
23:15 75.6 °F 73.8 °F 29.62 in SSW 6.0 mph 12.0 mph 94% 0.00 in -RA
23:30 75.7 °F 73.8 °F 29.62 in SSW 5.0 mph 13.0 mph 94% 0.00 in -RA
23:45 75.6 °F 73.8 °F 29.62 in South 2.0 mph 10.0 mph 94% 0.00 in -RA
TarryTown NY Weather
Compliments of Weather Underground - 1.5 mb